<?xml version="1.0" encoding="UTF-8" standalone="no" ?>
<gpx xmlns="http://www.topografix.com/GPX/1/1" xmlns:xsi="http://www.w3.org/2001/XMLSchema-instance" xsi:schemaLocation="http://www.topografix.com/GPX/1/1 http://www.topografix.com/GPX/1/1/gpx.xsd" version="1.1" creator="VisuGPX - https://www.visugpx.com">
  <metadata>
    <name>GRPVannesJ6_J11</name>
    <desc><![CDATA[gnerando idor: 12438601_12438612_12438617_12438628_12438643_12438715]]></desc>
  </metadata>
  <trk>
    <name><![CDATA[GRPvannesJ7_RochefortTQuestembert_20km-12438612]]></name>
    <extensions>
      <line xmlns="http://www.topografix.com/GPX/gpx_style/0/2">
        <color>00FF00</color>
        <width>4</width>
      </line>
    </extensions>
    <trkseg>
      <trkpt lat="47.69832" lon="-2.33686">
        <ele>39</ele>
        <time>2023-10-30T18:03:19Z</time>
      </trkpt>
      <trkpt lat="47.69775" lon="-2.33655">
        <ele>36</ele>
        <time>2023-10-30T18:04:40Z</time>
      </trkpt>
      <trkpt lat="47.69766" lon="-2.33659">
        <ele>36</ele>
        <time>2023-10-30T18:04:53Z</time>
      </trkpt>
      <trkpt lat="47.6976" lon="-2.33658">
        <ele>36</ele>
        <time>2023-10-30T18:05:01Z</time>
      </trkpt>
      <trkpt lat="47.69723" lon="-2.33644">
        <ele>39</ele>
        <time>2023-10-30T18:05:52Z</time>
      </trkpt>
      <trkpt lat="47.69679" lon="-2.33696">
        <ele>44</ele>
        <time>2023-10-30T18:07:07Z</time>
      </trkpt>
      <trkpt lat="47.69658" lon="-2.33755">
        <ele>45</ele>
        <time>2023-10-30T18:08:07Z</time>
      </trkpt>
      <trkpt lat="47.69659" lon="-2.33842">
        <ele>47</ele>
        <time>2023-10-30T18:09:25Z</time>
      </trkpt>
      <trkpt lat="47.69645" lon="-2.33914">
        <ele>50</ele>
        <time>2023-10-30T18:10:32Z</time>
      </trkpt>
      <trkpt lat="47.69567" lon="-2.33953">
        <ele>55</ele>
        <time>2023-10-30T18:12:22Z</time>
      </trkpt>
      <trkpt lat="47.69484" lon="-2.33939">
        <ele>61</ele>
        <time>2023-10-30T18:14:13Z</time>
      </trkpt>
      <trkpt lat="47.69433" lon="-2.33985">
        <ele>62</ele>
        <time>2023-10-30T18:15:33Z</time>
      </trkpt>
      <trkpt lat="47.69354" lon="-2.34041">
        <ele>66</ele>
        <time>2023-10-30T18:17:30Z</time>
      </trkpt>
      <trkpt lat="47.69271" lon="-2.34081">
        <ele>70</ele>
        <time>2023-10-30T18:19:26Z</time>
      </trkpt>
      <trkpt lat="47.6925" lon="-2.34098">
        <ele>71</ele>
        <time>2023-10-30T18:19:58Z</time>
      </trkpt>
      <trkpt lat="47.6926" lon="-2.34134">
        <ele>70</ele>
        <time>2023-10-30T18:20:33Z</time>
      </trkpt>
      <trkpt lat="47.69244" lon="-2.34191">
        <ele>71</ele>
        <time>2023-10-30T18:21:29Z</time>
      </trkpt>
      <trkpt lat="47.69219" lon="-2.3419">
        <ele>68</ele>
        <time>2023-10-30T18:22:02Z</time>
      </trkpt>
      <trkpt lat="47.69202" lon="-2.3422">
        <ele>68</ele>
        <time>2023-10-30T18:22:37Z</time>
      </trkpt>
      <trkpt lat="47.69189" lon="-2.34216">
        <ele>66</ele>
        <time>2023-10-30T18:22:55Z</time>
      </trkpt>
      <trkpt lat="47.69188" lon="-2.34199">
        <ele>65</ele>
        <time>2023-10-30T18:23:10Z</time>
      </trkpt>
      <trkpt lat="47.69204" lon="-2.3418">
        <ele>66</ele>
        <time>2023-10-30T18:23:37Z</time>
      </trkpt>
      <trkpt lat="47.69198" lon="-2.34167">
        <ele>65</ele>
        <time>2023-10-30T18:23:52Z</time>
      </trkpt>
      <trkpt lat="47.6916" lon="-2.34219">
        <ele>63</ele>
        <time>2023-10-30T18:25:01Z</time>
      </trkpt>
      <trkpt lat="47.69139" lon="-2.34267">
        <ele>60</ele>
        <time>2023-10-30T18:25:52Z</time>
      </trkpt>
      <trkpt lat="47.69138" lon="-2.34278">
        <ele>60</ele>
        <time>2023-10-30T18:26:02Z</time>
      </trkpt>
      <trkpt lat="47.69114" lon="-2.3429">
        <ele>55</ele>
        <time>2023-10-30T18:26:36Z</time>
      </trkpt>
      <trkpt lat="47.69107" lon="-2.34407">
        <ele>54</ele>
        <time>2023-10-30T18:28:21Z</time>
      </trkpt>
      <trkpt lat="47.69113" lon="-2.34528">
        <ele>54</ele>
        <time>2023-10-30T18:30:10Z</time>
      </trkpt>
      <trkpt lat="47.69151" lon="-2.34657">
        <ele>52</ele>
        <time>2023-10-30T18:32:17Z</time>
      </trkpt>
      <trkpt lat="47.69192" lon="-2.34771">
        <ele>47</ele>
        <time>2023-10-30T18:34:13Z</time>
      </trkpt>
      <trkpt lat="47.69215" lon="-2.34806">
        <ele>47</ele>
        <time>2023-10-30T18:34:57Z</time>
      </trkpt>
      <trkpt lat="47.69213" lon="-2.34906">
        <ele>48</ele>
        <time>2023-10-30T18:36:27Z</time>
      </trkpt>
      <trkpt lat="47.69215" lon="-2.34896">
        <ele>48</ele>
        <time>2023-10-30T18:36:36Z</time>
      </trkpt>
      <trkpt lat="47.69199" lon="-2.34938">
        <ele>49</ele>
        <time>2023-10-30T18:37:19Z</time>
      </trkpt>
      <trkpt lat="47.69193" lon="-2.35041">
        <ele>54</ele>
        <time>2023-10-30T18:38:52Z</time>
      </trkpt>
      <trkpt lat="47.69165" lon="-2.35099">
        <ele>54</ele>
        <time>2023-10-30T18:39:56Z</time>
      </trkpt>
      <trkpt lat="47.69139" lon="-2.35287">
        <ele>52</ele>
        <time>2023-10-30T18:42:49Z</time>
      </trkpt>
      <trkpt lat="47.69145" lon="-2.35382">
        <ele>52</ele>
        <time>2023-10-30T18:44:14Z</time>
      </trkpt>
      <trkpt lat="47.69128" lon="-2.35446">
        <ele>49</ele>
        <time>2023-10-30T18:45:16Z</time>
      </trkpt>
      <trkpt lat="47.69083" lon="-2.35512">
        <ele>47</ele>
        <time>2023-10-30T18:46:41Z</time>
      </trkpt>
      <trkpt lat="47.69034" lon="-2.35604">
        <ele>47</ele>
        <time>2023-10-30T18:48:26Z</time>
      </trkpt>
      <trkpt lat="47.69001" lon="-2.35705">
        <ele>47</ele>
        <time>2023-10-30T18:50:07Z</time>
      </trkpt>
      <trkpt lat="47.68997" lon="-2.35811">
        <ele>47</ele>
        <time>2023-10-30T18:51:42Z</time>
      </trkpt>
      <trkpt lat="47.68981" lon="-2.35847">
        <ele>47</ele>
        <time>2023-10-30T18:52:21Z</time>
      </trkpt>
      <trkpt lat="47.68955" lon="-2.35863">
        <ele>47</ele>
        <time>2023-10-30T18:52:59Z</time>
      </trkpt>
      <trkpt lat="47.68939" lon="-2.35853">
        <ele>47</ele>
        <time>2023-10-30T18:53:22Z</time>
      </trkpt>
      <trkpt lat="47.68931" lon="-2.35816">
        <ele>47</ele>
        <time>2023-10-30T18:53:57Z</time>
      </trkpt>
      <trkpt lat="47.68927" lon="-2.35815">
        <ele>47</ele>
        <time>2023-10-30T18:54:02Z</time>
      </trkpt>
      <trkpt lat="47.68904" lon="-2.3584">
        <ele>47</ele>
        <time>2023-10-30T18:54:40Z</time>
      </trkpt>
      <trkpt lat="47.6885" lon="-2.35861">
        <ele>49</ele>
        <time>2023-10-30T18:55:55Z</time>
      </trkpt>
      <trkpt lat="47.68801" lon="-2.35854">
        <ele>50</ele>
        <time>2023-10-30T18:57:00Z</time>
      </trkpt>
      <trkpt lat="47.68777" lon="-2.35891">
        <ele>51</ele>
        <time>2023-10-30T18:57:46Z</time>
      </trkpt>
      <trkpt lat="47.68734" lon="-2.35891">
        <ele>55</ele>
        <time>2023-10-30T18:58:44Z</time>
      </trkpt>
      <trkpt lat="47.68701" lon="-2.35888">
        <ele>61</ele>
        <time>2023-10-30T18:59:28Z</time>
      </trkpt>
      <trkpt lat="47.68665" lon="-2.35879">
        <ele>66</ele>
        <time>2023-10-30T19:00:17Z</time>
      </trkpt>
      <trkpt lat="47.68636" lon="-2.35863">
        <ele>68</ele>
        <time>2023-10-30T19:00:58Z</time>
      </trkpt>
      <trkpt lat="47.68619" lon="-2.35848">
        <ele>69</ele>
        <time>2023-10-30T19:01:24Z</time>
      </trkpt>
      <trkpt lat="47.68559" lon="-2.35873">
        <ele>74</ele>
        <time>2023-10-30T19:02:47Z</time>
      </trkpt>
      <trkpt lat="47.68532" lon="-2.35777">
        <ele>75</ele>
        <time>2023-10-30T19:04:21Z</time>
      </trkpt>
      <trkpt lat="47.68503" lon="-2.35717">
        <ele>75</ele>
        <time>2023-10-30T19:05:27Z</time>
      </trkpt>
      <trkpt lat="47.68456" lon="-2.35647">
        <ele>76</ele>
        <time>2023-10-30T19:06:56Z</time>
      </trkpt>
      <trkpt lat="47.68411" lon="-2.35593">
        <ele>76</ele>
        <time>2023-10-30T19:08:13Z</time>
      </trkpt>
      <trkpt lat="47.6835" lon="-2.35474">
        <ele>78</ele>
        <time>2023-10-30T19:10:28Z</time>
      </trkpt>
      <trkpt lat="47.68341" lon="-2.35444">
        <ele>78</ele>
        <time>2023-10-30T19:10:57Z</time>
      </trkpt>
      <trkpt lat="47.68344" lon="-2.35397">
        <ele>78</ele>
        <time>2023-10-30T19:11:40Z</time>
      </trkpt>
      <trkpt lat="47.68334" lon="-2.35375">
        <ele>78</ele>
        <time>2023-10-30T19:12:03Z</time>
      </trkpt>
      <trkpt lat="47.68295" lon="-2.35382">
        <ele>79</ele>
        <time>2023-10-30T19:12:56Z</time>
      </trkpt>
      <trkpt lat="47.68187" lon="-2.35443">
        <ele>80</ele>
        <time>2023-10-30T19:15:30Z</time>
      </trkpt>
      <trkpt lat="47.68096" lon="-2.35478">
        <ele>80</ele>
        <time>2023-10-30T19:17:35Z</time>
      </trkpt>
      <trkpt lat="47.68056" lon="-2.35451">
        <ele>81</ele>
        <time>2023-10-30T19:18:34Z</time>
      </trkpt>
      <trkpt lat="47.67979" lon="-2.35361">
        <ele>83</ele>
        <time>2023-10-30T19:20:45Z</time>
      </trkpt>
      <trkpt lat="47.67882" lon="-2.35349">
        <ele>85</ele>
        <time>2023-10-30T19:22:55Z</time>
      </trkpt>
      <trkpt lat="47.67825" lon="-2.35304">
        <ele>84</ele>
        <time>2023-10-30T19:24:21Z</time>
      </trkpt>
      <trkpt lat="47.6779" lon="-2.35301">
        <ele>83</ele>
        <time>2023-10-30T19:25:08Z</time>
      </trkpt>
      <trkpt lat="47.67749" lon="-2.35304">
        <ele>82</ele>
        <time>2023-10-30T19:26:02Z</time>
      </trkpt>
      <trkpt lat="47.67738" lon="-2.35286">
        <ele>82</ele>
        <time>2023-10-30T19:26:24Z</time>
      </trkpt>
      <trkpt lat="47.6769" lon="-2.35245">
        <ele>82</ele>
        <time>2023-10-30T19:27:38Z</time>
      </trkpt>
      <trkpt lat="47.67655" lon="-2.35235">
        <ele>82</ele>
        <time>2023-10-30T19:28:26Z</time>
      </trkpt>
      <trkpt lat="47.67584" lon="-2.35203">
        <ele>84</ele>
        <time>2023-10-30T19:30:05Z</time>
      </trkpt>
      <trkpt lat="47.67526" lon="-2.35184">
        <ele>86</ele>
        <time>2023-10-30T19:31:24Z</time>
      </trkpt>
      <trkpt lat="47.67473" lon="-2.35173">
        <ele>88</ele>
        <time>2023-10-30T19:32:35Z</time>
      </trkpt>
      <trkpt lat="47.67449" lon="-2.35161">
        <ele>88</ele>
        <time>2023-10-30T19:33:09Z</time>
      </trkpt>
      <trkpt lat="47.67403" lon="-2.35203">
        <ele>89</ele>
        <time>2023-10-30T19:34:21Z</time>
      </trkpt>
      <trkpt lat="47.67375" lon="-2.35252">
        <ele>88</ele>
        <time>2023-10-30T19:35:19Z</time>
      </trkpt>
      <trkpt lat="47.67376" lon="-2.35314">
        <ele>88</ele>
        <time>2023-10-30T19:36:15Z</time>
      </trkpt>
      <trkpt lat="47.67372" lon="-2.35413">
        <ele>89</ele>
        <time>2023-10-30T19:37:44Z</time>
      </trkpt>
      <trkpt lat="47.6736" lon="-2.35482">
        <ele>90</ele>
        <time>2023-10-30T19:38:48Z</time>
      </trkpt>
      <trkpt lat="47.67225" lon="-2.35494">
        <ele>87</ele>
        <time>2023-10-30T19:41:48Z</time>
      </trkpt>
      <trkpt lat="47.67109" lon="-2.35574">
        <ele>85</ele>
        <time>2023-10-30T19:44:39Z</time>
      </trkpt>
      <trkpt lat="47.67037" lon="-2.35609">
        <ele>87</ele>
        <time>2023-10-30T19:46:20Z</time>
      </trkpt>
      <trkpt lat="47.67014" lon="-2.35566">
        <ele>91</ele>
        <time>2023-10-30T19:47:10Z</time>
      </trkpt>
      <trkpt lat="47.67022" lon="-2.35515">
        <ele>89</ele>
        <time>2023-10-30T19:47:57Z</time>
      </trkpt>
      <trkpt lat="47.67018" lon="-2.35435">
        <ele>88</ele>
        <time>2023-10-30T19:49:09Z</time>
      </trkpt>
      <trkpt lat="47.66999" lon="-2.35294">
        <ele>86</ele>
        <time>2023-10-30T19:51:18Z</time>
      </trkpt>
      <trkpt lat="47.66949" lon="-2.35325">
        <ele>86</ele>
        <time>2023-10-30T19:52:30Z</time>
      </trkpt>
      <trkpt lat="47.66875" lon="-2.35328">
        <ele>85</ele>
        <time>2023-10-30T19:54:09Z</time>
      </trkpt>
      <trkpt lat="47.66866" lon="-2.35312">
        <ele>84</ele>
        <time>2023-10-30T19:54:28Z</time>
      </trkpt>
      <trkpt lat="47.66816" lon="-2.35325">
        <ele>82</ele>
        <time>2023-10-30T19:55:35Z</time>
      </trkpt>
      <trkpt lat="47.66831" lon="-2.35475">
        <ele>88</ele>
        <time>2023-10-30T19:57:52Z</time>
      </trkpt>
      <trkpt lat="47.66836" lon="-2.3557">
        <ele>87</ele>
        <time>2023-10-30T19:59:17Z</time>
      </trkpt>
      <trkpt lat="47.66818" lon="-2.35631">
        <ele>86</ele>
        <time>2023-10-30T20:00:17Z</time>
      </trkpt>
      <trkpt lat="47.66804" lon="-2.35655">
        <ele>86</ele>
        <time>2023-10-30T20:00:46Z</time>
      </trkpt>
      <trkpt lat="47.6675" lon="-2.35688">
        <ele>85</ele>
        <time>2023-10-30T20:02:04Z</time>
      </trkpt>
      <trkpt lat="47.66747" lon="-2.35639">
        <ele>85</ele>
        <time>2023-10-30T20:02:48Z</time>
      </trkpt>
      <trkpt lat="47.66669" lon="-2.35672">
        <ele>86</ele>
        <time>2023-10-30T20:04:36Z</time>
      </trkpt>
      <trkpt lat="47.66555" lon="-2.35692">
        <ele>83</ele>
        <time>2023-10-30T20:07:09Z</time>
      </trkpt>
      <trkpt lat="47.66539" lon="-2.35657">
        <ele>83</ele>
        <time>2023-10-30T20:07:47Z</time>
      </trkpt>
      <trkpt lat="47.66492" lon="-2.35615">
        <ele>83</ele>
        <time>2023-10-30T20:09:01Z</time>
      </trkpt>
      <trkpt lat="47.66419" lon="-2.3565">
        <ele>82</ele>
        <time>2023-10-30T20:10:43Z</time>
      </trkpt>
      <trkpt lat="47.66393" lon="-2.35647">
        <ele>82</ele>
        <time>2023-10-30T20:11:18Z</time>
      </trkpt>
      <trkpt lat="47.66309" lon="-2.3565">
        <ele>81</ele>
        <time>2023-10-30T20:13:10Z</time>
      </trkpt>
      <trkpt lat="47.66201" lon="-2.3564">
        <ele>82</ele>
        <time>2023-10-30T20:15:34Z</time>
      </trkpt>
      <trkpt lat="47.6606" lon="-2.35587">
        <ele>85</ele>
        <time>2023-10-30T20:18:48Z</time>
      </trkpt>
      <trkpt lat="47.66021" lon="-2.35581">
        <ele>85</ele>
        <time>2023-10-30T20:19:41Z</time>
      </trkpt>
      <trkpt lat="47.65969" lon="-2.35583">
        <ele>84</ele>
        <time>2023-10-30T20:20:50Z</time>
      </trkpt>
      <trkpt lat="47.65901" lon="-2.35544">
        <ele>84</ele>
        <time>2023-10-30T20:22:27Z</time>
      </trkpt>
      <trkpt lat="47.65883" lon="-2.35542">
        <ele>84</ele>
        <time>2023-10-30T20:22:51Z</time>
      </trkpt>
      <trkpt lat="47.65815" lon="-2.35503">
        <ele>83</ele>
        <time>2023-10-30T20:24:29Z</time>
      </trkpt>
      <trkpt lat="47.65757" lon="-2.35484">
        <ele>84</ele>
        <time>2023-10-30T20:25:48Z</time>
      </trkpt>
      <trkpt lat="47.65675" lon="-2.35511">
        <ele>84</ele>
        <time>2023-10-30T20:27:40Z</time>
      </trkpt>
      <trkpt lat="47.65626" lon="-2.3555">
        <ele>82</ele>
        <time>2023-10-30T20:28:54Z</time>
      </trkpt>
      <trkpt lat="47.65571" lon="-2.35571">
        <ele>81</ele>
        <time>2023-10-30T20:30:10Z</time>
      </trkpt>
      <trkpt lat="47.65496" lon="-2.35585">
        <ele>79</ele>
        <time>2023-10-30T20:31:51Z</time>
      </trkpt>
      <trkpt lat="47.65404" lon="-2.35577">
        <ele>69</ele>
        <time>2023-10-30T20:33:54Z</time>
      </trkpt>
      <trkpt lat="47.65367" lon="-2.3554">
        <ele>67</ele>
        <time>2023-10-30T20:34:53Z</time>
      </trkpt>
      <trkpt lat="47.65348" lon="-2.35525">
        <ele>65</ele>
        <time>2023-10-30T20:35:22Z</time>
      </trkpt>
      <trkpt lat="47.65309" lon="-2.35528">
        <ele>66</ele>
        <time>2023-10-30T20:36:14Z</time>
      </trkpt>
      <trkpt lat="47.6529" lon="-2.35532">
        <ele>67</ele>
        <time>2023-10-30T20:36:40Z</time>
      </trkpt>
      <trkpt lat="47.65291" lon="-2.35436">
        <ele>70</ele>
        <time>2023-10-30T20:38:06Z</time>
      </trkpt>
      <trkpt lat="47.65286" lon="-2.35273">
        <ele>71</ele>
        <time>2023-10-30T20:40:33Z</time>
      </trkpt>
      <trkpt lat="47.65261" lon="-2.35164">
        <ele>68</ele>
        <time>2023-10-30T20:42:16Z</time>
      </trkpt>
      <trkpt lat="47.65254" lon="-2.35023">
        <ele>62</ele>
        <time>2023-10-30T20:44:23Z</time>
      </trkpt>
      <trkpt lat="47.65223" lon="-2.34954">
        <ele>64</ele>
        <time>2023-10-30T20:45:38Z</time>
      </trkpt>
      <trkpt lat="47.65188" lon="-2.34932">
        <ele>66</ele>
        <time>2023-10-30T20:46:29Z</time>
      </trkpt>
      <trkpt lat="47.65168" lon="-2.3481">
        <ele>71</ele>
        <time>2023-10-30T20:48:22Z</time>
      </trkpt>
      <trkpt lat="47.65147" lon="-2.34717">
        <ele>72</ele>
        <time>2023-10-30T20:49:50Z</time>
      </trkpt>
      <trkpt lat="47.65141" lon="-2.34657">
        <ele>71</ele>
        <time>2023-10-30T20:50:44Z</time>
      </trkpt>
      <trkpt lat="47.65144" lon="-2.34628">
        <ele>70</ele>
        <time>2023-10-30T20:51:11Z</time>
      </trkpt>
      <trkpt lat="47.65131" lon="-2.34588">
        <ele>69</ele>
        <time>2023-10-30T20:51:51Z</time>
      </trkpt>
      <trkpt lat="47.65109" lon="-2.34495">
        <ele>68</ele>
        <time>2023-10-30T20:53:19Z</time>
      </trkpt>
      <trkpt lat="47.65088" lon="-2.34432">
        <ele>68</ele>
        <time>2023-10-30T20:54:22Z</time>
      </trkpt>
      <trkpt lat="47.65073" lon="-2.34324">
        <ele>68</ele>
        <time>2023-10-30T20:56:02Z</time>
      </trkpt>
      <trkpt lat="47.64975" lon="-2.34323">
        <ele>70</ele>
        <time>2023-10-30T20:58:12Z</time>
      </trkpt>
      <trkpt lat="47.6497" lon="-2.34285">
        <ele>70</ele>
        <time>2023-10-30T20:58:47Z</time>
      </trkpt>
      <trkpt lat="47.64972" lon="-2.34242">
        <ele>69</ele>
        <time>2023-10-30T20:59:26Z</time>
      </trkpt>
      <trkpt lat="47.64967" lon="-2.34188">
        <ele>68</ele>
        <time>2023-10-30T21:00:15Z</time>
      </trkpt>
      <trkpt lat="47.64959" lon="-2.34157">
        <ele>68</ele>
        <time>2023-10-30T21:00:45Z</time>
      </trkpt>
      <trkpt lat="47.64959" lon="-2.34133">
        <ele>67</ele>
        <time>2023-10-30T21:01:06Z</time>
      </trkpt>
      <trkpt lat="47.64892" lon="-2.34084">
        <ele>68</ele>
        <time>2023-10-30T21:02:46Z</time>
      </trkpt>
      <trkpt lat="47.64835" lon="-2.3405">
        <ele>69</ele>
        <time>2023-10-30T21:04:08Z</time>
      </trkpt>
      <trkpt lat="47.64812" lon="-2.3404">
        <ele>67</ele>
        <time>2023-10-30T21:04:40Z</time>
      </trkpt>
      <trkpt lat="47.64789" lon="-2.34066">
        <ele>67</ele>
        <time>2023-10-30T21:05:18Z</time>
      </trkpt>
      <trkpt lat="47.6476" lon="-2.3407">
        <ele>65</ele>
        <time>2023-10-30T21:05:57Z</time>
      </trkpt>
      <trkpt lat="47.64724" lon="-2.34064">
        <ele>64</ele>
        <time>2023-10-30T21:06:46Z</time>
      </trkpt>
      <trkpt lat="47.64667" lon="-2.34041">
        <ele>63</ele>
        <time>2023-10-30T21:08:05Z</time>
      </trkpt>
      <trkpt lat="47.64642" lon="-2.34039">
        <ele>64</ele>
        <time>2023-10-30T21:08:38Z</time>
      </trkpt>
      <trkpt lat="47.64628" lon="-2.34041">
        <ele>64</ele>
        <time>2023-10-30T21:08:57Z</time>
      </trkpt>
      <trkpt lat="47.64621" lon="-2.34083">
        <ele>66</ele>
        <time>2023-10-30T21:09:36Z</time>
      </trkpt>
      <trkpt lat="47.64608" lon="-2.34101">
        <ele>67</ele>
        <time>2023-10-30T21:09:59Z</time>
      </trkpt>
      <trkpt lat="47.64596" lon="-2.34075">
        <ele>66</ele>
        <time>2023-10-30T21:10:28Z</time>
      </trkpt>
      <trkpt lat="47.64594" lon="-2.34041">
        <ele>64</ele>
        <time>2023-10-30T21:10:58Z</time>
      </trkpt>
      <trkpt lat="47.64572" lon="-2.34023">
        <ele>63</ele>
        <time>2023-10-30T21:11:32Z</time>
      </trkpt>
      <trkpt lat="47.64555" lon="-2.34015">
        <ele>63</ele>
        <time>2023-10-30T21:11:56Z</time>
      </trkpt>
      <trkpt lat="47.64544" lon="-2.34001">
        <ele>62</ele>
        <time>2023-10-30T21:12:15Z</time>
      </trkpt>
      <trkpt lat="47.64512" lon="-2.34002">
        <ele>63</ele>
        <time>2023-10-30T21:12:58Z</time>
      </trkpt>
      <trkpt lat="47.6448" lon="-2.3403">
        <ele>65</ele>
        <time>2023-10-30T21:13:47Z</time>
      </trkpt>
      <trkpt lat="47.64444" lon="-2.34067">
        <ele>66</ele>
        <time>2023-10-30T21:14:46Z</time>
      </trkpt>
      <trkpt lat="47.64411" lon="-2.34069">
        <ele>65</ele>
        <time>2023-10-30T21:15:30Z</time>
      </trkpt>
      <trkpt lat="47.64379" lon="-2.3405">
        <ele>65</ele>
        <time>2023-10-30T21:16:16Z</time>
      </trkpt>
      <trkpt lat="47.64357" lon="-2.34007">
        <ele>64</ele>
        <time>2023-10-30T21:17:04Z</time>
      </trkpt>
      <trkpt lat="47.64338" lon="-2.33955">
        <ele>61</ele>
        <time>2023-10-30T21:17:58Z</time>
      </trkpt>
      <trkpt lat="47.64333" lon="-2.33911">
        <ele>58</ele>
        <time>2023-10-30T21:18:38Z</time>
      </trkpt>
      <trkpt lat="47.64326" lon="-2.33887">
        <ele>56</ele>
        <time>2023-10-30T21:19:01Z</time>
      </trkpt>
      <trkpt lat="47.64313" lon="-2.33879">
        <ele>56</ele>
        <time>2023-10-30T21:19:20Z</time>
      </trkpt>
      <trkpt lat="47.6428" lon="-2.33874">
        <ele>55</ele>
        <time>2023-10-30T21:20:04Z</time>
      </trkpt>
      <trkpt lat="47.64222" lon="-2.33875">
        <ele>56</ele>
        <time>2023-10-30T21:21:22Z</time>
      </trkpt>
      <trkpt lat="47.6414" lon="-2.33938">
        <ele>63</ele>
        <time>2023-10-30T21:23:25Z</time>
      </trkpt>
      <trkpt lat="47.64177" lon="-2.33832">
        <ele>55</ele>
        <time>2023-10-30T21:25:12Z</time>
      </trkpt>
      <trkpt lat="47.64183" lon="-2.33788">
        <ele>54</ele>
        <time>2023-10-30T21:25:53Z</time>
      </trkpt>
      <trkpt lat="47.64184" lon="-2.33726">
        <ele>53</ele>
        <time>2023-10-30T21:26:48Z</time>
      </trkpt>
      <trkpt lat="47.64165" lon="-2.33696">
        <ele>50</ele>
        <time>2023-10-30T21:27:25Z</time>
      </trkpt>
      <trkpt lat="47.6413" lon="-2.33697">
        <ele>51</ele>
        <time>2023-10-30T21:28:12Z</time>
      </trkpt>
      <trkpt lat="47.6412" lon="-2.33693">
        <ele>51</ele>
        <time>2023-10-30T21:28:26Z</time>
      </trkpt>
      <trkpt lat="47.64092" lon="-2.33702">
        <ele>53</ele>
        <time>2023-10-30T21:29:04Z</time>
      </trkpt>
      <trkpt lat="47.64073" lon="-2.33692">
        <ele>52</ele>
        <time>2023-10-30T21:29:31Z</time>
      </trkpt>
      <trkpt lat="47.64028" lon="-2.33645">
        <ele>49</ele>
        <time>2023-10-30T21:30:44Z</time>
      </trkpt>
      <trkpt lat="47.63983" lon="-2.3361">
        <ele>46</ele>
        <time>2023-10-30T21:31:52Z</time>
      </trkpt>
      <trkpt lat="47.63877" lon="-2.33649">
        <ele>49</ele>
        <time>2023-10-30T21:34:18Z</time>
      </trkpt>
      <trkpt lat="47.63843" lon="-2.33666">
        <ele>47</ele>
        <time>2023-10-30T21:35:06Z</time>
      </trkpt>
      <trkpt lat="47.63752" lon="-2.33687">
        <ele>44</ele>
        <time>2023-10-30T21:37:09Z</time>
      </trkpt>
      <trkpt lat="47.63699" lon="-2.33763">
        <ele>44</ele>
        <time>2023-10-30T21:38:47Z</time>
      </trkpt>
      <trkpt lat="47.63674" lon="-2.33784">
        <ele>45</ele>
        <time>2023-10-30T21:39:25Z</time>
      </trkpt>
      <trkpt lat="47.63634" lon="-2.33805">
        <ele>44</ele>
        <time>2023-10-30T21:40:22Z</time>
      </trkpt>
      <trkpt lat="47.63554" lon="-2.33863">
        <ele>37</ele>
        <time>2023-10-30T21:42:21Z</time>
      </trkpt>
      <trkpt lat="47.63514" lon="-2.33908">
        <ele>32</ele>
        <time>2023-10-30T21:43:28Z</time>
      </trkpt>
      <trkpt lat="47.63492" lon="-2.33958">
        <ele>33</ele>
        <time>2023-10-30T21:44:21Z</time>
      </trkpt>
      <trkpt lat="47.63488" lon="-2.34007">
        <ele>38</ele>
        <time>2023-10-30T21:45:06Z</time>
      </trkpt>
      <trkpt lat="47.63494" lon="-2.34081">
        <ele>39</ele>
        <time>2023-10-30T21:46:13Z</time>
      </trkpt>
      <trkpt lat="47.63525" lon="-2.34261">
        <ele>35</ele>
        <time>2023-10-30T21:49:00Z</time>
      </trkpt>
      <trkpt lat="47.63556" lon="-2.34387">
        <ele>39</ele>
        <time>2023-10-30T21:51:01Z</time>
      </trkpt>
      <trkpt lat="47.63608" lon="-2.34531">
        <ele>48</ele>
        <time>2023-10-30T21:53:27Z</time>
      </trkpt>
      <trkpt lat="47.63633" lon="-2.3459">
        <ele>50</ele>
        <time>2023-10-30T21:54:30Z</time>
      </trkpt>
      <trkpt lat="47.63648" lon="-2.3465">
        <ele>50</ele>
        <time>2023-10-30T21:55:28Z</time>
      </trkpt>
      <trkpt lat="47.63635" lon="-2.34714">
        <ele>45</ele>
        <time>2023-10-30T21:56:28Z</time>
      </trkpt>
      <trkpt lat="47.63639" lon="-2.34774">
        <ele>43</ele>
        <time>2023-10-30T21:57:22Z</time>
      </trkpt>
      <trkpt lat="47.63654" lon="-2.34851">
        <ele>43</ele>
        <time>2023-10-30T21:58:34Z</time>
      </trkpt>
      <trkpt lat="47.63686" lon="-2.34908">
        <ele>47</ele>
        <time>2023-10-30T21:59:41Z</time>
      </trkpt>
      <trkpt lat="47.63706" lon="-2.34926">
        <ele>50</ele>
        <time>2023-10-30T22:00:12Z</time>
      </trkpt>
      <trkpt lat="47.63718" lon="-2.34955">
        <ele>53</ele>
        <time>2023-10-30T22:00:43Z</time>
      </trkpt>
      <trkpt lat="47.63747" lon="-2.34967">
        <ele>56</ele>
        <time>2023-10-30T22:01:23Z</time>
      </trkpt>
      <trkpt lat="47.63742" lon="-2.34992">
        <ele>55</ele>
        <time>2023-10-30T22:01:46Z</time>
      </trkpt>
      <trkpt lat="47.63765" lon="-2.35002">
        <ele>57</ele>
        <time>2023-10-30T22:02:18Z</time>
      </trkpt>
      <trkpt lat="47.63829" lon="-2.35101">
        <ele>59</ele>
        <time>2023-10-30T22:04:22Z</time>
      </trkpt>
      <trkpt lat="47.63846" lon="-2.35155">
        <ele>60</ele>
        <time>2023-10-30T22:05:15Z</time>
      </trkpt>
      <trkpt lat="47.63824" lon="-2.35194">
        <ele>63</ele>
        <time>2023-10-30T22:06:01Z</time>
      </trkpt>
      <trkpt lat="47.63786" lon="-2.35204">
        <ele>66</ele>
        <time>2023-10-30T22:06:52Z</time>
      </trkpt>
      <trkpt lat="47.63766" lon="-2.35238">
        <ele>68</ele>
        <time>2023-10-30T22:07:33Z</time>
      </trkpt>
      <trkpt lat="47.63731" lon="-2.35289">
        <ele>69</ele>
        <time>2023-10-30T22:08:38Z</time>
      </trkpt>
      <trkpt lat="47.63716" lon="-2.35327">
        <ele>69</ele>
        <time>2023-10-30T22:09:18Z</time>
      </trkpt>
      <trkpt lat="47.63706" lon="-2.3534">
        <ele>69</ele>
        <time>2023-10-30T22:09:36Z</time>
      </trkpt>
      <trkpt lat="47.63661" lon="-2.35336">
        <ele>66</ele>
        <time>2023-10-30T22:10:36Z</time>
      </trkpt>
      <trkpt lat="47.63611" lon="-2.35344">
        <ele>62</ele>
        <time>2023-10-30T22:11:43Z</time>
      </trkpt>
      <trkpt lat="47.63591" lon="-2.35363">
        <ele>62</ele>
        <time>2023-10-30T22:12:15Z</time>
      </trkpt>
      <trkpt lat="47.63583" lon="-2.35375">
        <ele>61</ele>
        <time>2023-10-30T22:12:30Z</time>
      </trkpt>
      <trkpt lat="47.63581" lon="-2.35394">
        <ele>62</ele>
        <time>2023-10-30T22:12:47Z</time>
      </trkpt>
      <trkpt lat="47.63587" lon="-2.35402">
        <ele>63</ele>
        <time>2023-10-30T22:12:58Z</time>
      </trkpt>
      <trkpt lat="47.63627" lon="-2.35417">
        <ele>67</ele>
        <time>2023-10-30T22:13:53Z</time>
      </trkpt>
      <trkpt lat="47.63653" lon="-2.35445">
        <ele>68</ele>
        <time>2023-10-30T22:14:36Z</time>
      </trkpt>
      <trkpt lat="47.63709" lon="-2.35547">
        <ele>73</ele>
        <time>2023-10-30T22:16:34Z</time>
      </trkpt>
      <trkpt lat="47.63746" lon="-2.35597">
        <ele>75</ele>
        <time>2023-10-30T22:17:41Z</time>
      </trkpt>
      <trkpt lat="47.63781" lon="-2.35635">
        <ele>76</ele>
        <time>2023-10-30T22:18:39Z</time>
      </trkpt>
      <trkpt lat="47.63819" lon="-2.35663">
        <ele>78</ele>
        <time>2023-10-30T22:19:36Z</time>
      </trkpt>
      <trkpt lat="47.63906" lon="-2.35814">
        <ele>79</ele>
        <time>2023-10-30T22:22:34Z</time>
      </trkpt>
      <trkpt lat="47.63958" lon="-2.35893">
        <ele>78</ele>
        <time>2023-10-30T22:24:13Z</time>
      </trkpt>
      <trkpt lat="47.63942" lon="-2.35902">
        <ele>78</ele>
        <time>2023-10-30T22:24:36Z</time>
      </trkpt>
      <trkpt lat="47.63912" lon="-2.35925">
        <ele>79</ele>
        <time>2023-10-30T22:25:21Z</time>
      </trkpt>
      <trkpt lat="47.63849" lon="-2.35946">
        <ele>79</ele>
        <time>2023-10-30T22:26:48Z</time>
      </trkpt>
      <trkpt lat="47.63851" lon="-2.35964">
        <ele>78</ele>
        <time>2023-10-30T22:27:04Z</time>
      </trkpt>
      <trkpt lat="47.63845" lon="-2.35974">
        <ele>78</ele>
        <time>2023-10-30T22:27:16Z</time>
      </trkpt>
      <trkpt lat="47.63845" lon="-2.35998">
        <ele>77</ele>
        <time>2023-10-30T22:27:38Z</time>
      </trkpt>
      <trkpt lat="47.6383" lon="-2.36051">
        <ele>76</ele>
        <time>2023-10-30T22:28:29Z</time>
      </trkpt>
      <trkpt lat="47.63749" lon="-2.36083">
        <ele>76</ele>
        <time>2023-10-30T22:30:21Z</time>
      </trkpt>
      <trkpt lat="47.63737" lon="-2.36093">
        <ele>76</ele>
        <time>2023-10-30T22:30:39Z</time>
      </trkpt>
      <trkpt lat="47.63697" lon="-2.36085">
        <ele>73</ele>
        <time>2023-10-30T22:31:33Z</time>
      </trkpt>
      <trkpt lat="47.63648" lon="-2.36097">
        <ele>70</ele>
        <time>2023-10-30T22:32:40Z</time>
      </trkpt>
      <trkpt lat="47.6362" lon="-2.36128">
        <ele>71</ele>
        <time>2023-10-30T22:33:26Z</time>
      </trkpt>
      <trkpt lat="47.6361" lon="-2.36148">
        <ele>72</ele>
        <time>2023-10-30T22:33:49Z</time>
      </trkpt>
      <trkpt lat="47.63557" lon="-2.36226">
        <ele>73</ele>
        <time>2023-10-30T22:35:28Z</time>
      </trkpt>
      <trkpt lat="47.63516" lon="-2.36309">
        <ele>75</ele>
        <time>2023-10-30T22:37:01Z</time>
      </trkpt>
      <trkpt lat="47.63471" lon="-2.36389">
        <ele>73</ele>
        <time>2023-10-30T22:38:34Z</time>
      </trkpt>
      <trkpt lat="47.63469" lon="-2.365">
        <ele>76</ele>
        <time>2023-10-30T22:40:14Z</time>
      </trkpt>
      <trkpt lat="47.63462" lon="-2.36555">
        <ele>72</ele>
        <time>2023-10-30T22:41:05Z</time>
      </trkpt>
      <trkpt lat="47.63476" lon="-2.36627">
        <ele>71</ele>
        <time>2023-10-30T22:42:12Z</time>
      </trkpt>
      <trkpt lat="47.63498" lon="-2.36685">
        <ele>73</ele>
        <time>2023-10-30T22:43:12Z</time>
      </trkpt>
      <trkpt lat="47.63496" lon="-2.36712">
        <ele>71</ele>
        <time>2023-10-30T22:43:36Z</time>
      </trkpt>
      <trkpt lat="47.63535" lon="-2.36858">
        <ele>68</ele>
        <time>2023-10-30T22:45:58Z</time>
      </trkpt>
      <trkpt lat="47.63532" lon="-2.37031">
        <ele>59</ele>
        <time>2023-10-30T22:48:33Z</time>
      </trkpt>
      <trkpt lat="47.6357" lon="-2.37084">
        <ele>63</ele>
        <time>2023-10-30T22:49:43Z</time>
      </trkpt>
      <trkpt lat="47.6361" lon="-2.37158">
        <ele>68</ele>
        <time>2023-10-30T22:51:08Z</time>
      </trkpt>
      <trkpt lat="47.63628" lon="-2.37229">
        <ele>69</ele>
        <time>2023-10-30T22:52:16Z</time>
      </trkpt>
      <trkpt lat="47.63675" lon="-2.37287">
        <ele>75</ele>
        <time>2023-10-30T22:53:38Z</time>
      </trkpt>
      <trkpt lat="47.63721" lon="-2.37327">
        <ele>79</ele>
        <time>2023-10-30T22:54:49Z</time>
      </trkpt>
      <trkpt lat="47.63757" lon="-2.37351">
        <ele>83</ele>
        <time>2023-10-30T22:55:42Z</time>
      </trkpt>
      <trkpt lat="47.63777" lon="-2.37412">
        <ele>83</ele>
        <time>2023-10-30T22:56:43Z</time>
      </trkpt>
      <trkpt lat="47.63796" lon="-2.37487">
        <ele>81</ele>
        <time>2023-10-30T22:57:55Z</time>
      </trkpt>
      <trkpt lat="47.63853" lon="-2.37681">
        <ele>81</ele>
        <time>2023-10-30T23:01:05Z</time>
      </trkpt>
      <trkpt lat="47.63854" lon="-2.37814">
        <ele>81</ele>
        <time>2023-10-30T23:03:05Z</time>
      </trkpt>
      <trkpt lat="47.63873" lon="-2.37912">
        <ele>83</ele>
        <time>2023-10-30T23:04:36Z</time>
      </trkpt>
      <trkpt lat="47.63897" lon="-2.38009">
        <ele>83</ele>
        <time>2023-10-30T23:06:09Z</time>
      </trkpt>
      <trkpt lat="47.63928" lon="-2.3802">
        <ele>83</ele>
        <time>2023-10-30T23:06:52Z</time>
      </trkpt>
      <trkpt lat="47.64004" lon="-2.38223">
        <ele>81</ele>
        <time>2023-10-30T23:10:21Z</time>
      </trkpt>
      <trkpt lat="47.64009" lon="-2.38262">
        <ele>81</ele>
        <time>2023-10-30T23:10:56Z</time>
      </trkpt>
      <trkpt lat="47.63988" lon="-2.38289">
        <ele>79</ele>
        <time>2023-10-30T23:11:33Z</time>
      </trkpt>
      <trkpt lat="47.63975" lon="-2.38287">
        <ele>78</ele>
        <time>2023-10-30T23:11:51Z</time>
      </trkpt>
      <trkpt lat="47.63964" lon="-2.38303">
        <ele>76</ele>
        <time>2023-10-30T23:12:11Z</time>
      </trkpt>
      <trkpt lat="47.6391" lon="-2.383">
        <ele>70</ele>
        <time>2023-10-30T23:13:23Z</time>
      </trkpt>
      <trkpt lat="47.63902" lon="-2.38281">
        <ele>70</ele>
        <time>2023-10-30T23:13:44Z</time>
      </trkpt>
      <trkpt lat="47.63882" lon="-2.38286">
        <ele>66</ele>
        <time>2023-10-30T23:14:11Z</time>
      </trkpt>
      <trkpt lat="47.63892" lon="-2.38312">
        <ele>66</ele>
        <time>2023-10-30T23:14:38Z</time>
      </trkpt>
      <trkpt lat="47.63909" lon="-2.38336">
        <ele>67</ele>
        <time>2023-10-30T23:15:09Z</time>
      </trkpt>
      <trkpt lat="47.63889" lon="-2.38406">
        <ele>62</ele>
        <time>2023-10-30T23:16:17Z</time>
      </trkpt>
      <trkpt lat="47.63896" lon="-2.38436">
        <ele>64</ele>
        <time>2023-10-30T23:16:46Z</time>
      </trkpt>
      <trkpt lat="47.63902" lon="-2.38507">
        <ele>66</ele>
        <time>2023-10-30T23:17:50Z</time>
      </trkpt>
      <trkpt lat="47.63929" lon="-2.38743">
        <ele>69</ele>
        <time>2023-10-30T23:21:25Z</time>
      </trkpt>
      <trkpt lat="47.63951" lon="-2.38809">
        <ele>73</ele>
        <time>2023-10-30T23:22:32Z</time>
      </trkpt>
      <trkpt lat="47.63949" lon="-2.38908">
        <ele>75</ele>
        <time>2023-10-30T23:24:01Z</time>
      </trkpt>
      <trkpt lat="47.6393" lon="-2.38958">
        <ele>73</ele>
        <time>2023-10-30T23:24:52Z</time>
      </trkpt>
      <trkpt lat="47.63913" lon="-2.39026">
        <ele>70</ele>
        <time>2023-10-30T23:25:57Z</time>
      </trkpt>
      <trkpt lat="47.639" lon="-2.39091">
        <ele>68</ele>
        <time>2023-10-30T23:26:58Z</time>
      </trkpt>
      <trkpt lat="47.63898" lon="-2.39166">
        <ele>64</ele>
        <time>2023-10-30T23:28:06Z</time>
      </trkpt>
      <trkpt lat="47.63902" lon="-2.39247">
        <ele>60</ele>
        <time>2023-10-30T23:29:19Z</time>
      </trkpt>
      <trkpt lat="47.63889" lon="-2.39311">
        <ele>57</ele>
        <time>2023-10-30T23:30:19Z</time>
      </trkpt>
      <trkpt lat="47.63828" lon="-2.3945">
        <ele>48</ele>
        <time>2023-10-30T23:32:48Z</time>
      </trkpt>
      <trkpt lat="47.63825" lon="-2.39474">
        <ele>47</ele>
        <time>2023-10-30T23:33:10Z</time>
      </trkpt>
      <trkpt lat="47.63791" lon="-2.39477">
        <ele>46</ele>
        <time>2023-10-30T23:33:56Z</time>
      </trkpt>
      <trkpt lat="47.63777" lon="-2.39482">
        <ele>46</ele>
        <time>2023-10-30T23:34:15Z</time>
      </trkpt>
      <trkpt lat="47.63777" lon="-2.39496">
        <ele>45</ele>
        <time>2023-10-30T23:34:27Z</time>
      </trkpt>
      <trkpt lat="47.63782" lon="-2.39503">
        <ele>46</ele>
        <time>2023-10-30T23:34:37Z</time>
      </trkpt>
      <trkpt lat="47.63776" lon="-2.39522">
        <ele>46</ele>
        <time>2023-10-30T23:34:55Z</time>
      </trkpt>
      <trkpt lat="47.6377" lon="-2.39557">
        <ele>48</ele>
        <time>2023-10-30T23:35:28Z</time>
      </trkpt>
      <trkpt lat="47.6376" lon="-2.39575">
        <ele>50</ele>
        <time>2023-10-30T23:35:49Z</time>
      </trkpt>
      <trkpt lat="47.63746" lon="-2.3958">
        <ele>51</ele>
        <time>2023-10-30T23:36:08Z</time>
      </trkpt>
      <trkpt lat="47.63714" lon="-2.39576">
        <ele>52</ele>
        <time>2023-10-30T23:36:51Z</time>
      </trkpt>
      <trkpt lat="47.63703" lon="-2.39587">
        <ele>53</ele>
        <time>2023-10-30T23:37:09Z</time>
      </trkpt>
      <trkpt lat="47.63717" lon="-2.39608">
        <ele>55</ele>
        <time>2023-10-30T23:37:35Z</time>
      </trkpt>
      <trkpt lat="47.63716" lon="-2.39633">
        <ele>57</ele>
        <time>2023-10-30T23:37:58Z</time>
      </trkpt>
      <trkpt lat="47.63708" lon="-2.39665">
        <ele>60</ele>
        <time>2023-10-30T23:38:28Z</time>
      </trkpt>
      <trkpt lat="47.63699" lon="-2.39662">
        <ele>60</ele>
        <time>2023-10-30T23:38:41Z</time>
      </trkpt>
      <trkpt lat="47.63687" lon="-2.39711">
        <ele>65</ele>
        <time>2023-10-30T23:39:28Z</time>
      </trkpt>
      <trkpt lat="47.6366" lon="-2.39922">
        <ele>77</ele>
        <time>2023-10-30T23:42:41Z</time>
      </trkpt>
      <trkpt lat="47.63665" lon="-2.40012">
        <ele>82</ele>
        <time>2023-10-30T23:44:02Z</time>
      </trkpt>
      <trkpt lat="47.63677" lon="-2.40076">
        <ele>85</ele>
        <time>2023-10-30T23:45:02Z</time>
      </trkpt>
      <trkpt lat="47.63752" lon="-2.40376">
        <ele>88</ele>
        <time>2023-10-30T23:49:49Z</time>
      </trkpt>
      <trkpt lat="47.63809" lon="-2.40571">
        <ele>91</ele>
        <time>2023-10-30T23:53:01Z</time>
      </trkpt>
      <trkpt lat="47.63884" lon="-2.40901">
        <ele>95</ele>
        <time>2023-10-30T23:58:14Z</time>
      </trkpt>
      <trkpt lat="47.63954" lon="-2.41121">
        <ele>90</ele>
        <time>2023-10-31T00:01:52Z</time>
      </trkpt>
      <trkpt lat="47.63991" lon="-2.41254">
        <ele>85</ele>
        <time>2023-10-31T00:04:02Z</time>
      </trkpt>
      <trkpt lat="47.64021" lon="-2.413">
        <ele>82</ele>
        <time>2023-10-31T00:04:59Z</time>
      </trkpt>
      <trkpt lat="47.64019" lon="-2.41347">
        <ele>80</ele>
        <time>2023-10-31T00:05:42Z</time>
      </trkpt>
      <trkpt lat="47.64037" lon="-2.41398">
        <ele>77</ele>
        <time>2023-10-31T00:06:33Z</time>
      </trkpt>
      <trkpt lat="47.64082" lon="-2.41499">
        <ele>72</ele>
        <time>2023-10-31T00:08:22Z</time>
      </trkpt>
      <trkpt lat="47.64105" lon="-2.41558">
        <ele>76</ele>
        <time>2023-10-31T00:09:24Z</time>
      </trkpt>
      <trkpt lat="47.64099" lon="-2.41651">
        <ele>79</ele>
        <time>2023-10-31T00:10:48Z</time>
      </trkpt>
      <trkpt lat="47.6409" lon="-2.4174">
        <ele>83</ele>
        <time>2023-10-31T00:12:09Z</time>
      </trkpt>
      <trkpt lat="47.64088" lon="-2.41806">
        <ele>85</ele>
        <time>2023-10-31T00:13:08Z</time>
      </trkpt>
      <trkpt lat="47.64113" lon="-2.41849">
        <ele>88</ele>
        <time>2023-10-31T00:13:59Z</time>
      </trkpt>
      <trkpt lat="47.64161" lon="-2.41883">
        <ele>91</ele>
        <time>2023-10-31T00:15:10Z</time>
      </trkpt>
      <trkpt lat="47.6426" lon="-2.41935">
        <ele>93</ele>
        <time>2023-10-31T00:17:30Z</time>
      </trkpt>
      <trkpt lat="47.6429" lon="-2.41938">
        <ele>93</ele>
        <time>2023-10-31T00:18:10Z</time>
      </trkpt>
      <trkpt lat="47.64347" lon="-2.419">
        <ele>92</ele>
        <time>2023-10-31T00:19:34Z</time>
      </trkpt>
      <trkpt lat="47.64389" lon="-2.41877">
        <ele>91</ele>
        <time>2023-10-31T00:20:33Z</time>
      </trkpt>
      <trkpt lat="47.64679" lon="-2.41996">
        <ele>82</ele>
        <time>2023-10-31T00:27:15Z</time>
      </trkpt>
      <trkpt lat="47.64708" lon="-2.42015">
        <ele>83</ele>
        <time>2023-10-31T00:27:57Z</time>
      </trkpt>
      <trkpt lat="47.64744" lon="-2.42115">
        <ele>84</ele>
        <time>2023-10-31T00:29:39Z</time>
      </trkpt>
      <trkpt lat="47.64791" lon="-2.42279">
        <ele>87</ele>
        <time>2023-10-31T00:32:19Z</time>
      </trkpt>
      <trkpt lat="47.64827" lon="-2.42409">
        <ele>90</ele>
        <time>2023-10-31T00:34:26Z</time>
      </trkpt>
      <trkpt lat="47.64843" lon="-2.42497">
        <ele>91</ele>
        <time>2023-10-31T00:35:48Z</time>
      </trkpt>
      <trkpt lat="47.64887" lon="-2.42648">
        <ele>88</ele>
        <time>2023-10-31T00:38:16Z</time>
      </trkpt>
      <trkpt lat="47.64923" lon="-2.42785">
        <ele>84</ele>
        <time>2023-10-31T00:40:28Z</time>
      </trkpt>
      <trkpt lat="47.64922" lon="-2.42781">
        <ele>84</ele>
        <time>2023-10-31T00:40:32Z</time>
      </trkpt>
      <trkpt lat="47.64935" lon="-2.42796">
        <ele>85</ele>
        <time>2023-10-31T00:40:54Z</time>
      </trkpt>
      <trkpt lat="47.64964" lon="-2.42838">
        <ele>86</ele>
        <time>2023-10-31T00:41:48Z</time>
      </trkpt>
      <trkpt lat="47.64979" lon="-2.42873">
        <ele>86</ele>
        <time>2023-10-31T00:42:25Z</time>
      </trkpt>
      <trkpt lat="47.64979" lon="-2.42934">
        <ele>84</ele>
        <time>2023-10-31T00:43:20Z</time>
      </trkpt>
      <trkpt lat="47.64982" lon="-2.42971">
        <ele>83</ele>
        <time>2023-10-31T00:43:53Z</time>
      </trkpt>
    </trkseg>
  </trk>
</gpx>